Time;durP1;ratioP1;P1;durP2;ratioP2;P2;SDS_P1;SDS_P2;PMS_P1;PMS_P2;Temp;Humidity;BMP_temperature;BMP_pressure;BME280_temperature;BME280_humidity;BME280_pressure;Samples;Min_cycle;Max_cycle;Signal;HPM_P1;HPM_P2
2023/10/21 00:02:02;;;;;;;18.80;6.50;;;;;;;16.55;52.36;94788.91;5020623;28;20049;-80
2023/10/21 00:04:28;;;;;;;20.20;6.57;;;;;;;16.58;52.62;94816.94;5020576;28;20065;-80
2023/10/21 00:06:54;;;;;;;19.30;7.55;;;;;;;16.52;52.56;94792.25;5029161;28;20040;-80
2023/10/21 00:09:20;;;;;;;16.58;9.40;;;;;;;16.75;52.56;94802.75;5033543;28;20566;-80
2023/10/21 00:11:45;;;;;;;23.55;8.07;;;;;;;16.42;53.00;94843.41;5022995;28;20124;-80
2023/10/21 00:14:11;;;;;;;13.48;6.85;;;;;;;16.27;52.90;94747.59;5021266;28;20057;-80
2023/10/21 00:16:36;;;;;;;18.73;7.63;;;;;;;16.54;52.65;94778.53;5022358;28;20120;-80
2023/10/21 00:19:03;;;;;;;19.25;6.18;;;;;;;16.64;52.96;94847.03;5020801;28;20441;-80
2023/10/21 00:21:29;;;;;;;18.75;6.05;;;;;;;16.70;52.70;94849.22;5021659;28;20058;-80
2023/10/21 00:23:54;;;;;;;13.88;5.38;;;;;;;16.54;52.56;94814.13;5021599;28;20034;-80
2023/10/21 00:26:20;;;;;;;25.50;6.43;;;;;;;16.35;52.76;94770.06;5022026;28;20022;-80
2023/10/21 00:28:45;;;;;;;14.05;6.05;;;;;;;16.49;53.51;94822.31;5038149;28;20033;-82
2023/10/21 00:31:11;;;;;;;14.82;6.05;;;;;;;16.20;53.38;94806.94;5010365;28;20037;-82
2023/10/21 00:33:36;;;;;;;17.58;5.80;;;;;;;16.16;53.68;94815.94;5010904;28;20034;-82
2023/10/21 00:36:03;;;;;;;21.95;5.47;;;;;;;16.15;53.60;94809.00;5012327;28;20029;-82
2023/10/21 00:38:29;;;;;;;18.35;6.13;;;;;;;16.40;53.75;94852.88;5014436;28;20033;-82
2023/10/21 00:40:56;;;;;;;17.85;6.43;;;;;;;16.36;53.39;94819.81;5023936;28;20030;-82
2023/10/21 00:43:36;;;;;;;14.85;6.32;;;;;;;16.26;53.60;94804.09;5011640;28;20030;-82
2023/10/21 00:46:15;;;;;;;13.85;5.90;;;;;;;16.38;53.65;94844.38;5010914;28;20033;-82
2023/10/21 00:48:41;;;;;;;12.50;5.35;;;;;;;16.10;54.02;94852.75;5012227;28;20136;-82
2023/10/21 00:51:09;;;;;;;18.13;5.82;;;;;;;15.71;54.43;94824.28;5011763;28;20297;-82
2023/10/21 00:53:35;;;;;;;15.40;4.97;;;;;;;16.12;53.74;94805.06;4993361;28;20108;-82
2023/10/21 00:56:01;;;;;;;10.60;5.35;;;;;;;16.13;53.83;94822.69;5010682;28;20479;-82
2023/10/21 00:58:32;;;;;;;13.90;5.50;;;;;;;16.28;53.56;94853.53;5011655;28;20117;-82
2023/10/21 01:01:06;;;;;;;18.23;5.45;;;;;;;16.00;54.36;94869.13;5014970;28;20036;-79
2023/10/21 01:03:32;;;;;;;17.70;5.47;;;;;;;16.03;53.93;94814.97;5014537;28;20065;-79
2023/10/21 01:05:58;;;;;;;18.25;5.18;;;;;;;16.30;54.03;94870.06;5013941;28;20034;-78
2023/10/21 01:08:23;;;;;;;19.92;5.15;;;;;;;16.03;54.03;94835.59;5013333;28;20033;-79
2023/10/21 01:10:49;;;;;;;19.23;6.65;;;;;;;16.03;54.30;94823.00;4996893;28;20037;-78
2023/10/21 01:13:14;;;;;;;20.92;6.65;;;;;;;15.98;55.17;94924.81;5012693;28;20046;-78
2023/10/21 01:15:40;;;;;;;15.05;5.50;;;;;;;16.03;54.53;94816.88;5018266;28;20465;-79
2023/10/21 01:18:09;;;;;;;16.20;4.65;;;;;;;16.05;54.20;94839.53;5017365;28;20032;-78
2023/10/21 01:20:41;;;;;;;14.07;5.28;;;;;;;16.02;54.70;94887.53;5018148;28;20484;-78
2023/10/21 01:23:07;;;;;;;19.50;4.82;;;;;;;15.96;54.36;94820.03;5018402;28;20026;-78
2023/10/21 01:25:33;;;;;;;17.65;5.32;;;;;;;15.95;54.58;94842.53;5016931;28;20030;-78
2023/10/21 01:27:59;;;;;;;14.38;4.90;;;;;;;16.30;54.20;94890.66;5021013;28;20038;-78
2023/10/21 01:30:25;;;;;;;14.57;4.53;;;;;;;16.23;53.58;94864.41;5036725;28;20116;-78
2023/10/21 01:32:51;;;;;;;21.40;4.90;;;;;;;16.38;53.19;94857.75;5033868;28;20481;-78
2023/10/21 01:35:17;;;;;;;19.98;5.03;;;;;;;15.98;53.18;94784.94;5019646;28;20109;-79
2023/10/21 01:37:44;;;;;;;22.75;4.97;;;;;;;15.72;53.87;94817.03;5011551;28;20042;-78
2023/10/21 01:40:11;;;;;;;22.45;5.55;;;;;;;16.05;54.06;94846.78;5009597;28;20140;-81
2023/10/21 01:42:40;;;;;;;17.23;4.85;;;;;;;16.26;53.99;94855.72;5025704;28;20026;-80
2023/10/21 01:45:08;;;;;;;14.95;4.60;;;;;;;16.20;54.01;94878.41;5025447;28;20038;-80
2023/10/21 01:47:34;;;;;;;19.80;5.50;;;;;;;15.89;51.96;94770.78;5025223;28;20057;-80
2023/10/21 01:50:00;;;;;;;14.50;4.65;;;;;;;16.41;52.64;94838.38;5026368;28;20034;-81
2023/10/21 01:52:26;;;;;;;12.38;4.32;;;;;;;16.26;53.08;94870.97;5021534;28;20084;-80
2023/10/21 01:54:54;;;;;;;14.77;4.95;;;;;;;16.41;52.78;94855.22;5026208;28;20043;-80
2023/10/21 01:57:20;;;;;;;16.25;4.72;;;;;;;16.11;52.75;94797.34;5025712;28;20034;-80
2023/10/21 01:59:46;;;;;;;10.30;4.97;;;;;;;16.31;52.74;94811.97;5022995;28;20183;-81
2023/10/21 02:02:12;;;;;;;16.63;4.82;;;;;;;16.50;52.88;94849.88;5025446;28;20021;-81
2023/10/21 02:04:37;;;;;;;12.43;5.30;;;;;;;15.42;53.60;94757.25;5023006;28;20041;-80
2023/10/21 02:07:03;;;;;;;13.32;4.55;;;;;;;15.82;54.34;94840.78;5022156;28;20029;-81
2023/10/21 02:09:29;;;;;;;15.20;5.13;;;;;;;15.74;54.14;94804.16;5020891;28;20034;-78
2023/10/21 02:11:55;;;;;;;21.23;5.13;;;;;;;16.14;53.90;94840.31;5016441;28;20033;-78
2023/10/21 02:14:24;;;;;;;15.07;5.47;;;;;;;16.09;54.34;94861.09;5016502;28;20053;-79
2023/10/21 02:16:50;;;;;;;16.55;5.22;;;;;;;15.37;54.70;94782.25;5016375;28;20034;-78
2023/10/21 02:19:16;;;;;;;15.00;5.10;;;;;;;15.97;54.57;94874.31;5016560;28;20037;-79
2023/10/21 02:21:42;;;;;;;19.95;4.88;;;;;;;15.98;54.24;94830.41;5016818;28;20057;-79
2023/10/21 02:24:07;;;;;;;21.63;5.85;;;;;;;15.71;54.79;94815.47;5018440;28;20113;-80
2023/10/21 02:26:33;;;;;;;15.38;5.53;;;;;;;15.72;54.78;94857.91;5017631;28;20166;-79
2023/10/21 02:28:58;;;;;;;17.35;4.70;;;;;;;15.61;55.45;94885.28;5019203;28;20030;-78
2023/10/21 02:31:24;;;;;;;11.63;5.07;;;;;;;15.64;55.47;94856.03;5018193;28;20067;-78
2023/10/21 02:33:49;;;;;;;9.63;4.38;;;;;;;15.80;55.18;94843.78;5002680;28;20027;-78
2023/10/21 02:36:15;;;;;;;14.18;4.88;;;;;;;15.78;54.53;94821.16;5019979;28;20365;-79
2023/10/21 02:38:41;;;;;;;17.92;4.75;;;;;;;16.02;54.31;94909.69;5017555;28;20036;-78
2023/10/21 02:41:06;;;;;;;16.00;5.22;;;;;;;15.69;54.78;94844.41;5018074;28;20025;-79
2023/10/21 02:43:33;;;;;;;22.67;5.18;;;;;;;16.03;54.55;94887.19;5018729;28;20056;-79
2023/10/21 02:46:12;;;;;;;17.38;5.65;;;;;;;15.90;54.68;94860.63;5016894;28;20095;-78
2023/10/21 02:48:38;;;;;;;16.67;4.50;;;;;;;16.29;54.23;94900.59;5018385;28;20077;-81
2023/10/21 02:51:15;;;;;;;16.27;5.60;;;;;;;15.72;54.12;94814.34;5023807;28;20025;-80
2023/10/21 02:53:41;;;;;;;17.75;4.95;;;;;;;16.23;54.39;94898.38;5023340;28;20029;-81
2023/10/21 02:56:07;;;;;;;14.77;4.53;;;;;;;15.96;54.79;94884.22;5023503;28;20030;-81
2023/10/21 02:58:34;;;;;;;13.57;5.15;;;;;;;15.91;54.97;94867.53;5035191;28;20037;-80
2023/10/21 03:01:14;;;;;;;18.08;5.35;;;;;;;15.75;55.44;94908.09;5027922;28;20117;-80
2023/10/21 03:03:41;;;;;;;17.08;5.43;;;;;;;15.53;55.53;94875.31;5022879;28;20030;-80
2023/10/21 03:06:08;;;;;;;21.73;5.30;;;;;;;15.60;56.03;94878.34;5022581;28;20029;-80
2023/10/21 03:08:34;;;;;;;21.50;5.80;;;;;;;15.81;55.62;94912.19;5021546;28;20030;-80
2023/10/21 03:11:05;;;;;;;16.38;5.55;;;;;;;15.66;56.23;94904.63;5006369;28;20030;-80
2023/10/21 03:13:31;;;;;;;12.27;4.82;;;;;;;15.40;55.52;94858.31;5023018;28;20050;-81
2023/10/21 03:15:57;;;;;;;18.08;5.22;;;;;;;15.90;55.75;94930.94;5023423;28;20554;-80
2023/10/21 03:18:23;;;;;;;15.07;5.45;;;;;;;15.68;55.88;94885.59;5022582;28;20037;-80
2023/10/21 03:20:52;;;;;;;11.57;5.13;;;;;;;15.74;56.54;94903.84;5029209;28;20492;-81
2023/10/21 03:23:18;;;;;;;14.60;4.75;;;;;;;15.82;56.33;94904.97;5034484;28;20488;-80
2023/10/21 03:25:54;;;;;;;19.55;5.03;;;;;;;15.83;55.95;94893.16;5023660;28;20140;-81
2023/10/21 03:28:19;;;;;;;16.55;5.25;;;;;;;15.49;56.70;94925.91;5022021;28;20281;-80
2023/10/21 03:30:47;;;;;;;14.50;5.00;;;;;;;14.87;58.48;94903.84;5022345;28;20087;-80
2023/10/21 03:33:12;;;;;;;16.60;5.80;;;;;;;14.96;57.50;94821.88;5024706;28;20022;-81
2023/10/21 03:35:38;;;;;;;16.40;5.40;;;;;;;14.76;58.87;94867.81;5005227;28;20112;-80
2023/10/21 03:38:03;;;;;;;12.52;5.45;;;;;;;14.42;59.09;94839.84;5021874;28;20084;-80
2023/10/21 03:40:29;;;;;;;14.20;5.63;;;;;;;14.77;58.50;94899.56;5024213;28;20037;-80
2023/10/21 03:42:55;;;;;;;13.77;5.25;;;;;;;14.56;58.79;94845.13;5023172;28;20034;-80
2023/10/21 03:45:20;;;;;;;15.10;6.07;;;;;;;14.62;59.31;94879.38;5021088;28;20026;-81
2023/10/21 03:47:46;;;;;;;20.65;5.38;;;;;;;15.01;58.51;94878.63;5020404;28;20032;-81
2023/10/21 03:50:11;;;;;;;18.50;5.40;;;;;;;15.08;58.51;94942.28;5003683;28;20090;-80
2023/10/21 03:52:39;;;;;;;19.75;5.35;;;;;;;14.94;59.21;94880.97;5007294;28;20034;-80
2023/10/21 03:55:05;;;;;;;15.85;5.30;;;;;;;14.78;59.19;94908.34;5022568;28;20036;-80
2023/10/21 03:57:31;;;;;;;11.45;6.18;;;;;;;14.90;59.02;94906.69;5020488;28;20034;-80
2023/10/21 03:59:59;;;;;;;23.52;6.68;;;;;;;14.38;58.85;94812.22;5017898;28;20037;-78
2023/10/21 04:02:25;;;;;;;9.80;4.88;;;;;;;14.82;59.50;94911.97;5014026;28;20420;-78
2023/10/21 04:04:50;;;;;;;20.65;5.97;;;;;;;14.60;59.79;94900.22;5014173;28;20040;-79
2023/10/21 04:07:16;;;;;;;20.08;5.65;;;;;;;14.72;59.49;94897.03;5014773;28;20411;-78
2023/10/21 04:09:41;;;;;;;13.75;5.63;;;;;;;14.46;60.21;94870.16;5016263;28;20040;-78
2023/10/21 04:12:07;;;;;;;15.68;5.47;;;;;;;14.32;60.20;94911.31;5028797;28;20128;-79
2023/10/21 04:14:33;;;;;;;24.35;5.78;;;;;;;14.41;59.25;94859.63;5019196;28;20108;-79
2023/10/21 04:16:59;;;;;;;15.68;4.85;;;;;;;14.74;59.02;94915.38;5014253;28;20057;-79
2023/10/21 04:19:25;;;;;;;20.77;5.25;;;;;;;14.42;58.65;94889.78;5014947;28;20103;-80
2023/10/21 04:21:50;;;;;;;16.05;5.35;;;;;;;14.09;58.19;94767.31;5030446;28;20038;-79
2023/10/21 04:24:15;;;;;;;12.10;4.45;;;;;;;14.79;57.76;94873.34;5013563;28;20036;-79
2023/10/21 04:26:41;;;;;;;15.68;5.72;;;;;;;14.84;57.97;94864.41;5014254;28;20022;-78
2023/10/21 04:29:06;;;;;;;24.48;5.20;;;;;;;14.94;58.46;94872.94;5017372;28;20088;-81
2023/10/21 04:31:41;;;;;;;18.52;5.28;;;;;;;14.81;58.09;94899.72;5029591;28;20042;-81
2023/10/21 04:34:06;;;;;;;13.88;5.40;;;;;;;14.93;58.17;94908.75;5031656;28;20026;-81
2023/10/21 04:36:32;;;;;;;18.77;5.88;;;;;;;15.05;57.99;94937.53;5031104;28;20089;-81
2023/10/21 04:38:57;;;;;;;17.45;5.72;;;;;;;14.70;58.38;94933.91;5029893;28;20096;-82
2023/10/21 04:41:23;;;;;;;23.67;5.35;;;;;;;14.92;58.28;94890.34;5031054;28;20030;-81
2023/10/21 04:43:48;;;;;;;20.63;5.85;;;;;;;14.81;58.13;94937.09;5031704;28;20152;-81
2023/10/21 04:46:14;;;;;;;21.40;5.43;;;;;;;14.80;57.89;94920.28;5031148;28;20038;-81
2023/10/21 04:48:39;;;;;;;17.33;5.80;;;;;;;14.70;57.50;94893.06;5030754;28;20025;-82
2023/10/21 04:51:05;;;;;;;21.40;5.65;;;;;;;15.03;58.02;94945.84;5030889;28;20037;-81
2023/10/21 04:53:34;;;;;;;15.10;4.85;;;;;;;14.84;57.69;94902.56;5029828;28;20030;-81
2023/10/21 04:55:59;;;;;;;16.17;4.88;;;;;;;15.10;56.88;94953.44;5031071;28;20041;-81
2023/10/21 04:58:25;;;;;;;14.40;6.18;;;;;;;15.05;57.09;94919.63;5029816;28;20127;-82
2023/10/21 05:00:51;;;;;;;20.52;5.47;;;;;;;14.84;57.56;94949.84;5061033;28;20116;-82
2023/10/21 05:03:16;;;;;;;25.73;5.90;;;;;;;15.20;57.45;94952.38;5047562;28;20041;-81
2023/10/21 05:05:43;;;;;;;17.23;5.47;;;;;;;15.27;57.52;95001.59;5029764;28;20097;-81
2023/10/21 05:08:08;;;;;;;15.73;4.90;;;;;;;15.37;56.75;94939.88;5027969;28;20038;-81
2023/10/21 05:10:34;;;;;;;19.58;5.25;;;;;;;15.07;56.67;94935.34;5018646;28;20480;-80
2023/10/21 05:12:59;;;;;;;15.68;5.65;;;;;;;15.30;56.92;94981.50;5019875;28;20042;-80
2023/10/21 05:15:24;;;;;;;13.40;5.97;;;;;;;15.34;56.88;94953.84;5021247;28;20061;-80
2023/10/21 05:17:50;;;;;;;29.48;5.97;;;;;;;15.16;57.56;95004.84;5018369;28;20022;-80
2023/10/21 05:20:15;;;;;;;18.25;6.07;;;;;;;15.06;57.74;95005.88;5018436;28;20026;-80
2023/10/21 05:22:41;;;;;;;15.38;4.72;;;;;;;15.04;57.60;94978.69;5021037;28;20034;-80
2023/10/21 05:25:09;;;;;;;22.00;6.20;;;;;;;15.29;57.50;94999.41;5019602;28;20034;-80
2023/10/21 05:27:35;;;;;;;23.08;5.82;;;;;;;15.23;57.36;95003.31;5020584;28;20396;-80
2023/10/21 05:30:01;;;;;;;21.88;5.70;;;;;;;15.10;57.17;94948.09;5022197;28;20044;-80
2023/10/21 05:32:26;;;;;;;15.55;5.75;;;;;;;15.51;57.08;94987.88;5021876;28;20026;-80
2023/10/21 05:34:52;;;;;;;13.95;6.03;;;;;;;15.46;57.14;94982.69;5020099;28;20436;-80
2023/10/21 05:37:17;;;;;;;13.82;5.03;;;;;;;15.31;57.38;94999.91;5003121;28;20598;-81
2023/10/21 05:39:43;;;;;;;23.50;6.85;;;;;;;15.49;56.98;95011.44;5026022;28;20262;-81
2023/10/21 05:42:09;;;;;;;19.80;7.40;;;;;;;15.71;56.33;95038.16;5030380;28;20018;-81
2023/10/21 05:44:35;;;;;;;21.48;6.97;;;;;;;15.60;56.42;95015.47;5029712;28;20040;-81
2023/10/21 05:47:00;;;;;;;18.92;6.05;;;;;;;15.74;56.32;95042.09;5013128;28;20030;-81
2023/10/21 05:49:26;;;;;;;17.25;6.43;;;;;;;15.68;56.80;95016.59;5030240;28;20072;-81
2023/10/21 05:51:51;;;;;;;15.63;6.80;;;;;;;15.58;56.37;94976.75;5027602;28;20472;-82
2023/10/21 05:54:17;;;;;;;21.83;5.97;;;;;;;15.72;56.81;95023.69;5015963;28;20029;-81
2023/10/21 05:56:42;;;;;;;18.48;6.35;;;;;;;15.35;57.37;94971.47;5029059;28;20042;-81
2023/10/21 05:59:07;;;;;;;23.75;7.75;;;;;;;15.50;57.78;95020.25;5029335;28;20040;-81
2023/10/21 06:01:33;;;;;;;28.27;6.75;;;;;;;15.72;56.92;94996.94;5031891;28;20026;-81
2023/10/21 06:03:58;;;;;;;24.02;7.53;;;;;;;15.69;58.14;95040.34;5033097;28;20030;-81
2023/10/21 06:06:24;;;;;;;27.83;7.72;;;;;;;15.71;57.21;95021.34;5032935;28;20030;-81
2023/10/21 06:08:49;;;;;;;31.92;6.53;;;;;;;15.32;57.64;94957.94;5032341;28;20038;-81
2023/10/21 06:11:16;;;;;;;18.88;6.55;;;;;;;15.96;57.32;95054.59;5032791;28;20037;-81
2023/10/21 06:13:41;;;;;;;27.38;5.82;;;;;;;15.89;56.83;95006.13;5062714;28;20041;-82
2023/10/21 06:16:08;;;;;;;24.65;7.65;;;;;;;15.98;56.48;95017.63;5067788;28;20153;-81
2023/10/21 06:18:40;;;;;;;24.98;6.35;;;;;;;15.97;56.26;95000.78;5033885;28;20038;-82
2023/10/21 06:21:06;;;;;;;19.00;6.18;;;;;;;16.13;55.95;95012.63;5015487;28;20026;-82
2023/10/21 06:23:31;;;;;;;12.90;6.47;;;;;;;15.94;55.64;94974.69;5015682;28;20030;-82
2023/10/21 06:25:57;;;;;;;25.88;7.47;;;;;;;16.04;55.64;94990.41;4996270;28;20173;-82
2023/10/21 06:28:23;;;;;;;19.80;6.65;;;;;;;16.12;55.88;94996.88;4998407;28;20117;-82
2023/10/21 06:30:48;;;;;;;15.77;5.25;;;;;;;16.38;55.82;95015.66;5032875;28;20066;-82
2023/10/21 06:33:14;;;;;;;22.80;5.90;;;;;;;16.41;55.39;95004.31;5013564;28;20028;-82
2023/10/21 06:35:40;;;;;;;17.73;6.03;;;;;;;16.66;54.99;95029.56;5015068;28;20072;-82
2023/10/21 06:38:06;;;;;;;15.43;5.63;;;;;;;16.76;54.40;95048.78;5008674;28;20022;-82
2023/10/21 06:40:32;;;;;;;29.60;8.13;;;;;;;16.85;54.13;95054.94;5002807;28;20396;-83
2023/10/21 06:42:58;;;;;;;23.35;6.18;;;;;;;16.78;53.97;95038.53;5013452;28;20060;-83
2023/10/21 06:45:23;;;;;;;34.25;8.57;;;;;;;16.42;53.83;94973.78;5013388;28;20026;-82
2023/10/21 06:47:49;;;;;;;17.75;6.95;;;;;;;16.71;53.34;95014.13;5015716;28;20030;-82
2023/10/21 06:50:14;;;;;;;32.17;6.97;;;;;;;16.75;53.22;95025.78;5001132;28;20519;-83
2023/10/21 06:52:40;;;;;;;21.90;7.22;;;;;;;16.79;53.08;95007.19;5008074;28;20112;-82
2023/10/21 06:55:07;;;;;;;21.55;6.38;;;;;;;16.86;52.90;95031.63;5013259;28;20034;-82
2023/10/21 06:57:32;;;;;;;17.52;5.95;;;;;;;16.98;52.37;95040.59;5028844;28;20052;-83
2023/10/21 06:59:59;;;;;;;21.48;5.78;;;;;;;17.15;52.05;95053.19;5015341;28;20480;-83
2023/10/21 07:02:25;;;;;;;25.15;6.03;;;;;;;17.17;52.02;95060.88;5012716;28;20045;-83
2023/10/21 07:04:50;;;;;;;31.05;7.40;;;;;;;16.89;52.18;94996.16;5013004;28;20378;-83
2023/10/21 07:07:16;;;;;;;26.92;6.72;;;;;;;17.05;51.85;95023.25;5011962;28;20373;-84
2023/10/21 07:09:41;;;;;;;19.55;5.80;;;;;;;17.29;52.24;95047.63;5015274;28;20037;-83
2023/10/21 07:12:07;;;;;;;21.73;7.25;;;;;;;17.03;52.65;95012.03;5034709;28;20026;-81
2023/10/21 07:14:33;;;;;;;24.15;6.53;;;;;;;17.31;52.45;95032.81;5024321;28;20046;-81
2023/10/21 07:17:00;;;;;;;17.38;6.43;;;;;;;17.07;52.53;95024.50;5022919;28;20029;-81
2023/10/21 07:19:26;;;;;;;17.45;5.93;;;;;;;17.03;52.35;94999.44;5024167;28;20124;-82
2023/10/21 07:21:51;;;;;;;20.23;5.75;;;;;;;17.05;52.63;95013.31;5012529;28;20054;-81
2023/10/21 07:24:17;;;;;;;21.70;7.30;;;;;;;17.29;52.48;95029.66;5024068;28;20510;-81
2023/10/21 07:26:43;;;;;;;25.08;5.28;;;;;;;17.27;52.43;95025.72;5030948;28;20037;-81
2023/10/21 07:29:08;;;;;;;25.25;5.97;;;;;;;17.30;52.43;95017.84;5021924;28;20473;-82
2023/10/21 07:31:34;;;;;;;12.68;5.97;;;;;;;17.41;52.57;95044.28;5013320;28;20111;-83
2023/10/21 07:34:00;;;;;;;19.70;5.88;;;;;;;17.52;52.54;95046.31;5013699;28;20025;-83
2023/10/21 07:36:26;;;;;;;17.27;5.25;;;;;;;17.53;52.57;95049.78;5012020;28;20061;-83
2023/10/21 07:38:52;;;;;;;19.25;5.88;;;;;;;17.68;52.34;95044.72;5011746;28;20057;-82
2023/10/21 07:41:18;;;;;;;16.77;6.05;;;;;;;17.52;52.80;95021.41;5013377;28;20054;-83
2023/10/21 07:43:44;;;;;;;21.25;5.38;;;;;;;17.71;52.41;95033.34;5013457;28;20500;-83
2023/10/21 07:46:10;;;;;;;16.83;5.43;;;;;;;17.72;52.45;95032.22;5012095;28;20030;-83
2023/10/21 07:48:35;;;;;;;17.60;5.78;;;;;;;17.84;52.04;95054.94;5011604;28;20577;-83
2023/10/21 07:51:01;;;;;;;22.55;5.75;;;;;;;17.79;51.55;95028.25;5005373;28;20030;-83
2023/10/21 07:53:26;;;;;;;23.05;5.38;;;;;;;18.08;51.42;95039.78;4992237;28;20458;-83
2023/10/21 07:55:53;;;;;;;12.57;5.20;;;;;;;18.17;51.02;95053.16;5002450;28;20030;-83
2023/10/21 07:58:18;;;;;;;13.10;5.80;;;;;;;17.96;50.94;95004.84;5014322;28;20044;-83
2023/10/21 08:00:44;;;;;;;20.08;5.55;;;;;;;18.17;50.70;95030.91;5013237;28;20042;-83
2023/10/21 08:03:09;;;;;;;25.00;5.85;;;;;;;18.03;50.37;94997.06;5013462;28;20033;-83
2023/10/21 08:05:35;;;;;;;16.35;5.85;;;;;;;18.19;50.49;95004.53;5012432;28;20042;-83
2023/10/21 08:08:00;;;;;;;13.63;5.50;;;;;;;18.36;50.11;95015.19;5012727;28;20029;-83
2023/10/21 08:10:26;;;;;;;20.40;5.50;;;;;;;18.56;50.27;95045.84;5012301;28;20172;-82
2023/10/21 08:12:51;;;;;;;15.75;5.13;;;;;;;18.55;50.03;95020.88;5011273;28;20073;-82
2023/10/21 08:15:17;;;;;;;21.50;5.18;;;;;;;18.60;49.95;95020.72;5014138;28;20520;-83
2023/10/21 08:17:43;;;;;;;17.92;5.07;;;;;;;18.56;49.63;94998.31;5013692;28;20037;-83
2023/10/21 08:20:09;;;;;;;18.33;5.20;;;;;;;18.91;49.99;95032.97;5017573;28;20037;-83
2023/10/21 08:22:36;;;;;;;22.20;5.82;;;;;;;19.01;49.75;95038.72;5026217;28;20113;-83
2023/10/21 08:25:01;;;;;;;20.23;5.45;;;;;;;19.09;49.74;95040.53;5011061;28;20117;-83
2023/10/21 08:27:27;;;;;;;17.60;5.38;;;;;;;19.06;49.62;95033.16;5012039;28;20069;-83
2023/10/21 08:29:53;;;;;;;17.20;5.15;;;;;;;19.15;49.22;95033.03;5017257;28;20034;-82
2023/10/21 08:32:19;;;;;;;17.75;5.65;;;;;;;19.29;49.18;95038.94;5011206;28;20022;-83
2023/10/21 08:34:44;;;;;;;22.92;5.60;;;;;;;19.04;48.97;94984.31;5007041;28;20045;-83
2023/10/21 08:37:10;;;;;;;17.77;5.65;;;;;;;19.19;48.70;94983.69;5012726;28;20339;-83
2023/10/21 08:39:36;;;;;;;19.60;4.90;;;;;;;19.50;48.18;95007.41;5013917;28;20034;-81
2023/10/21 08:42:02;;;;;;;23.10;4.60;;;;;;;19.26;47.65;94967.78;5020338;28;20095;-81
2023/10/21 08:44:30;;;;;;;23.88;4.50;;;;;;;19.63;47.47;95022.47;5019463;28;20033;-81
2023/10/21 08:46:58;;;;;;;10.02;4.10;;;;;;;19.88;47.02;95028.66;5019145;28;20123;-81
2023/10/21 08:49:24;;;;;;;17.55;4.38;;;;;;;19.90;46.55;95004.91;5019929;28;20045;-81
2023/10/21 08:51:52;;;;;;;27.58;4.97;;;;;;;19.90;45.81;94987.97;5018792;28;20061;-81
2023/10/21 08:54:19;;;;;;;18.27;4.63;;;;;;;20.23;44.58;95022.81;5020254;28;20021;-81
2023/10/21 08:56:45;;;;;;;19.20;5.10;;;;;;;20.34;43.40;95019.38;5020133;28;20068;-81
2023/10/21 08:59:12;;;;;;;15.48;3.60;;;;;;;20.30;42.84;94978.03;5020808;28;20033;-81
2023/10/21 09:01:39;;;;;;;22.52;4.20;;;;;;;20.43;41.27;94981.53;5020138;28;20362;-81
2023/10/21 09:04:05;;;;;;;19.33;3.90;;;;;;;20.78;40.41;95014.88;5018153;28;20108;-81
2023/10/21 09:06:31;;;;;;;20.70;3.95;;;;;;;20.88;39.91;94993.97;5016338;28;20582;-81
2023/10/21 09:08:56;;;;;;;16.05;3.97;;;;;;;20.91;39.74;94985.19;5019648;28;20034;-81
2023/10/21 09:11:26;;;;;;;17.05;3.67;;;;;;;21.03;39.58;94999.41;5021482;28;20074;-81
2023/10/21 09:13:58;;;;;;;13.15;2.92;;;;;;;21.26;39.35;95004.28;5021026;28;20053;-81
2023/10/21 09:16:31;;;;;;;15.00;3.50;;;;;;;21.31;38.51;94987.84;5019896;28;20088;-81
2023/10/21 09:19:06;;;;;;;27.00;3.72;;;;;;;21.35;37.66;94977.94;5021486;28;20049;-81
2023/10/21 09:21:52;;;;;;;16.75;4.70;;;;;;;21.68;36.96;94997.28;5021054;28;20032;-81
2023/10/21 09:24:23;;;;;;;22.67;4.13;;;;;;;21.77;37.17;94989.78;5020035;28;20069;-81
2023/10/21 09:26:49;;;;;;;11.65;3.58;;;;;;;21.78;35.45;94969.78;5011307;28;20480;-82
2023/10/21 09:29:20;;;;;;;20.95;3.78;;;;;;;21.63;34.93;94913.88;4999065;28;20038;-80
2023/10/21 09:31:54;;;;;;;15.57;3.90;;;;;;;22.15;34.87;94986.47;5004449;28;20053;-79
2023/10/21 09:34:24;;;;;;;35.83;5.68;;;;;;;22.26;33.81;94975.94;5012888;28;20343;-79
2023/10/21 09:36:52;;;;;;;14.70;4.13;;;;;;;22.22;33.90;94966.94;5017444;28;20083;-79
2023/10/21 09:39:17;;;;;;;12.13;3.38;;;;;;;22.29;34.13;94946.28;5017857;28;20033;-79
2023/10/21 09:41:44;;;;;;;11.93;3.38;;;;;;;22.42;33.34;94948.88;5017546;28;20029;-79
2023/10/21 09:44:13;;;;;;;25.05;4.35;;;;;;;22.58;32.35;94974.69;5016706;28;20022;-79
2023/10/21 09:46:40;;;;;;;19.10;3.08;;;;;;;22.91;31.61;94986.97;5019512;28;20037;-79
2023/10/21 09:49:06;;;;;;;30.58;3.60;;;;;;;23.09;30.98;94964.56;5018856;28;20025;-79
2023/10/21 09:51:36;;;;;;;24.45;4.40;;;;;;;23.64;30.18;94978.72;5017451;28;20481;-78
2023/10/21 09:54:10;;;;;;;13.02;2.85;;;;;;;24.44;28.82;94969.50;5019167;28;20516;-79
2023/10/21 09:56:37;;;;;;;16.83;3.58;;;;;;;25.26;26.95;94955.03;5016172;28;20042;-78
2023/10/21 09:59:05;;;;;;;25.35;3.50;;;;;;;26.18;25.75;94963.22;5017329;28;20030;-79
2023/10/21 10:01:32;;;;;;;15.98;3.92;;;;;;;26.88;24.66;94943.84;5015678;28;20484;-79
2023/10/21 10:04:00;;;;;;;23.35;3.50;;;;;;;27.69;23.64;94895.44;5029725;28;20099;-79
2023/10/21 10:06:26;;;;;;;27.13;4.72;;;;;;;28.85;22.77;94956.41;5022009;28;20115;-78
2023/10/21 10:08:52;;;;;;;23.55;3.83;;;;;;;29.63;22.03;94962.28;5017493;28;20085;-78
2023/10/21 10:11:18;;;;;;;17.15;3.70;;;;;;;30.04;21.12;94962.44;5018253;28;20084;-79
2023/10/21 10:13:48;;;;;;;18.33;3.75;;;;;;;29.99;20.68;94962.84;5016498;28;20046;-78
2023/10/21 10:16:25;;;;;;;18.67;3.17;;;;;;;30.57;20.69;94939.28;5016440;28;20038;-80
2023/10/21 10:18:51;;;;;;;18.35;4.03;;;;;;;31.03;19.93;94931.31;5017516;28;20032;-79
2023/10/21 10:21:18;;;;;;;18.17;3.40;;;;;;;31.08;19.64;94910.16;5016738;28;20504;-79
2023/10/21 10:23:58;;;;;;;30.35;4.35;;;;;;;31.01;20.12;94908.25;5016174;28;20038;-79
2023/10/21 10:26:37;;;;;;;31.35;4.22;;;;;;;31.30;19.43;94867.56;5004875;28;20038;-81
2023/10/21 10:29:25;;;;;;;19.35;4.18;;;;;;;31.50;18.84;94919.75;5010243;28;20087;-79
2023/10/21 10:32:14;;;;;;;25.27;3.42;;;;;;;30.69;19.00;94914.13;5015888;28;20041;-79
2023/10/21 10:34:55;;;;;;;19.95;3.58;;;;;;;30.37;19.64;94892.53;5015401;28;20052;-79
2023/10/21 10:37:24;;;;;;;28.75;4.00;;;;;;;30.65;18.58;94921.59;5016811;28;20477;-79
2023/10/21 10:39:49;;;;;;;21.65;3.58;;;;;;;30.59;18.83;94896.63;5017797;28;20449;-81
2023/10/21 10:42:15;;;;;;;18.42;3.10;;;;;;;30.88;18.82;94918.22;5017143;28;20057;-81
2023/10/21 10:44:42;;;;;;;18.02;3.40;;;;;;;31.27;19.38;94926.72;5017616;28;20061;-81
2023/10/21 10:47:09;;;;;;;21.27;3.83;;;;;;;31.20;18.35;94917.84;5016126;28;20049;-81
2023/10/21 10:50:19;;;;;;;27.92;3.97;;;;;;;31.30;18.31;94912.19;5017136;28;20068;-81
2023/10/21 10:52:46;;;;;;;16.13;3.20;;;;;;;31.27;18.48;94888.38;4979409;28;20556;-81
2023/10/21 10:55:11;;;;;;;20.92;3.95;;;;;;;31.24;18.71;94921.28;5026801;28;20475;-81
2023/10/21 10:57:37;;;;;;;31.52;4.07;;;;;;;30.64;18.46;94937.25;5017779;28;20038;-81
2023/10/21 11:00:10;;;;;;;25.88;4.13;;;;;;;30.92;18.48;94922.44;5020142;28;20030;-81
2023/10/21 11:02:44;;;;;;;26.05;3.75;;;;;;;31.10;18.33;94891.34;5019695;28;20037;-81
2023/10/21 11:05:20;;;;;;;21.48;3.42;;;;;;;31.24;18.59;94922.06;5019464;28;20040;-81
2023/10/21 11:07:55;;;;;;;25.60;4.15;;;;;;;31.36;17.79;94912.50;5019289;28;20109;-81
2023/10/21 11:10:22;;;;;;;19.23;3.58;;;;;;;30.92;18.43;94877.84;5018782;28;20037;-81
2023/10/21 11:12:49;;;;;;;16.33;3.20;;;;;;;31.16;18.26;94911.59;5019326;28;20054;-81
2023/10/21 11:15:16;;;;;;;23.92;4.65;;;;;;;31.32;18.95;94922.75;5019061;28;20135;-81
2023/10/21 11:17:43;;;;;;;18.58;3.13;;;;;;;31.60;18.76;94936.03;5017914;28;20097;-81
2023/10/21 11:20:09;;;;;;;29.50;3.47;;;;;;;31.65;18.05;94923.88;5019175;28;20036;-81
2023/10/21 11:22:36;;;;;;;21.95;3.80;;;;;;;31.26;18.46;94848.47;5018065;28;20030;-81
2023/10/21 11:25:03;;;;;;;23.02;4.53;;;;;;;31.48;18.17;94881.03;5018419;28;20113;-81